sensor_id;sensor_type;location;lat;lon;timestamp;P1;durP1;ratioP1;P2;durP2;ratioP2
22308;SDS011;11322;50.858;-1.778;2024-01-15T00:00:33;2.8;;;1.4;;
22308;SDS011;11322;50.858;-1.778;2024-01-15T00:05:33;1.35;;;0.9;;
22308;SDS011;11322;50.858;-1.778;2024-01-15T00:10:33;8.4;;;2.65;;
22308;SDS011;11322;50.858;-1.778;2024-01-15T00:15:33;1.65;;;1.0;;
22308;SDS011;11322;50.858;-1.778;2024-01-15T00:20:33;1.9;;;0.9;;
22308;SDS011;11322;50.858;-1.778;2024-01-15T00:25:33;2.25;;;1.2;;
22308;SDS011;11322;50.858;-1.778;2024-01-15T00:30:33;4.2;;;1.4;;
22308;SDS011;11322;50.858;-1.778;2024-01-15T00:35:33;1.0;;;0.75;;
22308;SDS011;11322;50.858;-1.778;2024-01-15T00:40:33;1.85;;;1.0;;
22308;SDS011;11322;50.858;-1.778;2024-01-15T00:45:33;1.6;;;0.9;;
22308;SDS011;11322;50.858;-1.778;2024-01-15T00:50:33;1.75;;;1.1;;
22308;SDS011;11322;50.858;-1.778;2024-01-15T00:55:33;4.2;;;1.65;;
22308;SDS011;11322;50.858;-1.778;2024-01-15T01:00:33;0.7;;;0.6;;
22308;SDS011;11322;50.858;-1.778;2024-01-15T01:05:33;1.7;;;0.8;;
22308;SDS011;11322;50.858;-1.778;2024-01-15T01:10:33;1.8;;;1.3;;
22308;SDS011;11322;50.858;-1.778;2024-01-15T01:15:33;1.25;;;1.0;;
22308;SDS011;11322;50.858;-1.778;2024-01-15T01:20:33;1.55;;;0.7;;
22308;SDS011;11322;50.858;-1.778;2024-01-15T01:25:33;1.3;;;0.6;;
22308;SDS011;11322;50.858;-1.778;2024-01-15T01:30:33;0.8;;;0.8;;
22308;SDS011;11322;50.858;-1.778;2024-01-15T01:35:33;0.6;;;0.6;;
22308;SDS011;11322;50.858;-1.778;2024-01-15T01:40:33;3.3;;;0.8;;
22308;SDS011;11322;50.858;-1.778;2024-01-15T01:45:33;1.8;;;1.1;;
22308;SDS011;11322;50.858;-1.778;2024-01-15T01:50:33;3.1;;;1.2;;
22308;SDS011;11322;50.858;-1.778;2024-01-15T01:55:33;1.0;;;0.9;;
22308;SDS011;11322;50.858;-1.778;2024-01-15T02:00:33;3.45;;;1.1;;
22308;SDS011;11322;50.858;-1.778;2024-01-15T02:05:33;1.7;;;0.9;;
22308;SDS011;11322;50.858;-1.778;2024-01-15T02:10:33;2.9;;;1.5;;
22308;SDS011;11322;50.858;-1.778;2024-01-15T02:15:33;5.55;;;1.8;;
22308;SDS011;11322;50.858;-1.778;2024-01-15T02:20:33;5.9;;;1.95;;
22308;SDS011;11322;50.858;-1.778;2024-01-15T02:25:33;10.8;;;1.9;;
22308;SDS011;11322;50.858;-1.778;2024-01-15T02:30:34;5.45;;;1.5;;
22308;SDS011;11322;50.858;-1.778;2024-01-15T02:35:33;3.05;;;1.5;;
22308;SDS011;11322;50.858;-1.778;2024-01-15T02:40:33;3.2;;;1.6;;
22308;SDS011;11322;50.858;-1.778;2024-01-15T02:45:33;3.65;;;1.1;;
22308;SDS011;11322;50.858;-1.778;2024-01-15T02:50:33;2.45;;;1.1;;
22308;SDS011;11322;50.858;-1.778;2024-01-15T02:55:33;2.65;;;1.4;;
22308;SDS011;11322;50.858;-1.778;2024-01-15T03:00:33;2.3;;;1.2;;
22308;SDS011;11322;50.858;-1.778;2024-01-15T03:05:33;5.6;;;1.8;;
22308;SDS011;11322;50.858;-1.778;2024-01-15T03:10:33;4.05;;;1.7;;
22308;SDS011;11322;50.858;-1.778;2024-01-15T03:15:33;1.7;;;1.4;;
22308;SDS011;11322;50.858;-1.778;2024-01-15T03:20:33;2.45;;;1.6;;
22308;SDS011;11322;50.858;-1.778;2024-01-15T03:25:33;4.4;;;1.3;;
22308;SDS011;11322;50.858;-1.778;2024-01-15T03:30:33;5.75;;;2.1;;
22308;SDS011;11322;50.858;-1.778;2024-01-15T03:35:33;9.8;;;1.95;;
22308;SDS011;11322;50.858;-1.778;2024-01-15T03:40:33;3.55;;;1.6;;
22308;SDS011;11322;50.858;-1.778;2024-01-15T03:45:33;3.05;;;1.6;;
22308;SDS011;11322;50.858;-1.778;2024-01-15T03:50:38;4.75;;;2.05;;
22308;SDS011;11322;50.858;-1.778;2024-01-15T03:55:33;7.3;;;2.15;;
22308;SDS011;11322;50.858;-1.778;2024-01-15T04:00:33;4.7;;;2.2;;
22308;SDS011;11322;50.858;-1.778;2024-01-15T04:05:33;6.35;;;1.9;;
22308;SDS011;11322;50.858;-1.778;2024-01-15T04:10:33;4.5;;;2.05;;
22308;SDS011;11322;50.858;-1.778;2024-01-15T04:15:33;6.15;;;2.15;;
22308;SDS011;11322;50.858;-1.778;2024-01-15T04:20:33;2.65;;;1.75;;
22308;SDS011;11322;50.858;-1.778;2024-01-15T04:25:33;4.8;;;1.5;;
22308;SDS011;11322;50.858;-1.778;2024-01-15T04:30:33;1.75;;;0.95;;
22308;SDS011;11322;50.858;-1.778;2024-01-15T04:35:33;5.7;;;1.5;;
22308;SDS011;11322;50.858;-1.778;2024-01-15T04:40:33;2.2;;;0.9;;
22308;SDS011;11322;50.858;-1.778;2024-01-15T04:45:33;3.3;;;1.5;;
22308;SDS011;11322;50.858;-1.778;2024-01-15T04:50:33;1.45;;;0.85;;
22308;SDS011;11322;50.858;-1.778;2024-01-15T04:55:33;1.9;;;1.0;;
22308;SDS011;11322;50.858;-1.778;2024-01-15T05:00:33;3.45;;;1.1;;
22308;SDS011;11322;50.858;-1.778;2024-01-15T05:05:33;3.2;;;0.7;;
22308;SDS011;11322;50.858;-1.778;2024-01-15T05:10:33;1.2;;;0.85;;
22308;SDS011;11322;50.858;-1.778;2024-01-15T05:15:33;1.3;;;0.9;;
22308;SDS011;11322;50.858;-1.778;2024-01-15T05:20:33;1.3;;;0.9;;
22308;SDS011;11322;50.858;-1.778;2024-01-15T05:25:33;4.3;;;0.75;;
22308;SDS011;11322;50.858;-1.778;2024-01-15T05:30:33;4.55;;;0.75;;
22308;SDS011;11322;50.858;-1.778;2024-01-15T05:35:33;4.05;;;1.2;;
22308;SDS011;11322;50.858;-1.778;2024-01-15T05:40:33;1.6;;;0.9;;
22308;SDS011;11322;50.858;-1.778;2024-01-15T05:45:34;2.05;;;1.0;;
22308;SDS011;11322;50.858;-1.778;2024-01-15T05:50:33;1.5;;;0.8;;
22308;SDS011;11322;50.858;-1.778;2024-01-15T05:55:34;2.7;;;0.85;;
22308;SDS011;11322;50.858;-1.778;2024-01-15T06:00:33;2.15;;;0.95;;
22308;SDS011;11322;50.858;-1.778;2024-01-15T06:05:33;8.2;;;1.25;;
22308;SDS011;11322;50.858;-1.778;2024-01-15T06:10:33;2.45;;;1.0;;
22308;SDS011;11322;50.858;-1.778;2024-01-15T06:15:33;2.9;;;1.1;;
22308;SDS011;11322;50.858;-1.778;2024-01-15T06:20:33;1.5;;;1.0;;
22308;SDS011;11322;50.858;-1.778;2024-01-15T06:25:33;3.2;;;1.35;;
22308;SDS011;11322;50.858;-1.778;2024-01-15T06:30:33;1.85;;;0.9;;
22308;SDS011;11322;50.858;-1.778;2024-01-15T06:35:33;2.2;;;1.1;;
22308;SDS011;11322;50.858;-1.778;2024-01-15T06:40:33;2.65;;;0.8;;
22308;SDS011;11322;50.858;-1.778;2024-01-15T06:45:33;2.5;;;1.0;;
22308;SDS011;11322;50.858;-1.778;2024-01-15T06:50:33;5.2;;;0.9;;
22308;SDS011;11322;50.858;-1.778;2024-01-15T06:55:33;2.5;;;0.6;;
22308;SDS011;11322;50.858;-1.778;2024-01-15T07:00:33;3.7;;;1.1;;
22308;SDS011;11322;50.858;-1.778;2024-01-15T07:05:33;0.8;;;0.6;;
22308;SDS011;11322;50.858;-1.778;2024-01-15T07:10:33;1.6;;;1.1;;
22308;SDS011;11322;50.858;-1.778;2024-01-15T07:15:33;3.75;;;0.75;;
22308;SDS011;11322;50.858;-1.778;2024-01-15T07:20:33;2.1;;;0.9;;
22308;SDS011;11322;50.858;-1.778;2024-01-15T07:25:33;4.45;;;1.0;;
22308;SDS011;11322;50.858;-1.778;2024-01-15T07:30:33;2.15;;;0.9;;
22308;SDS011;11322;50.858;-1.778;2024-01-15T07:35:33;3.55;;;1.1;;
22308;SDS011;11322;50.858;-1.778;2024-01-15T07:40:33;1.4;;;0.55;;
22308;SDS011;11322;50.858;-1.778;2024-01-15T07:45:33;3.6;;;1.8;;
22308;SDS011;11322;50.858;-1.778;2024-01-15T07:50:33;1.6;;;1.25;;
22308;SDS011;11322;50.858;-1.778;2024-01-15T07:55:33;0.65;;;0.5;;
22308;SDS011;11322;50.858;-1.778;2024-01-15T08:00:33;4.85;;;1.0;;
22308;SDS011;11322;50.858;-1.778;2024-01-15T08:05:33;3.55;;;0.9;;
22308;SDS011;11322;50.858;-1.778;2024-01-15T08:10:33;4.9;;;1.8;;
22308;SDS011;11322;50.858;-1.778;2024-01-15T08:15:33;8.15;;;4.1;;
22308;SDS011;11322;50.858;-1.778;2024-01-15T08:20:33;17.25;;;5.4;;
22308;SDS011;11322;50.858;-1.778;2024-01-15T08:25:43;13.3;;;4.8;;
22308;SDS011;11322;50.858;-1.778;2024-01-15T08:30:34;14.9;;;5.65;;
22308;SDS011;11322;50.858;-1.778;2024-01-15T08:35:33;6.5;;;2.95;;
22308;SDS011;11322;50.858;-1.778;2024-01-15T08:40:33;3.15;;;1.4;;
22308;SDS011;11322;50.858;-1.778;2024-01-15T08:45:33;6.65;;;1.85;;
22308;SDS011;11322;50.858;-1.778;2024-01-15T08:50:33;10.15;;;2.35;;
22308;SDS011;11322;50.858;-1.778;2024-01-15T08:55:33;7.6;;;2.55;;
22308;SDS011;11322;50.858;-1.778;2024-01-15T09:00:33;8.8;;;1.7;;
22308;SDS011;11322;50.858;-1.778;2024-01-15T09:05:33;3.25;;;2.0;;
22308;SDS011;11322;50.858;-1.778;2024-01-15T09:10:33;1.75;;;1.4;;
22308;SDS011;11322;50.858;-1.778;2024-01-15T09:15:33;3.55;;;1.85;;
22308;SDS011;11322;50.858;-1.778;2024-01-15T09:20:33;1.6;;;1.1;;
22308;SDS011;11322;50.858;-1.778;2024-01-15T09:25:33;2.85;;;0.7;;
22308;SDS011;11322;50.858;-1.778;2024-01-15T09:30:33;1.25;;;1.0;;
22308;SDS011;11322;50.858;-1.778;2024-01-15T09:35:33;1.6;;;1.0;;
22308;SDS011;11322;50.858;-1.778;2024-01-15T09:40:33;1.9;;;1.3;;
22308;SDS011;11322;50.858;-1.778;2024-01-15T09:45:33;1.85;;;0.75;;
22308;SDS011;11322;50.858;-1.778;2024-01-15T09:50:33;2.05;;;1.0;;
22308;SDS011;11322;50.858;-1.778;2024-01-15T09:55:33;1.4;;;0.9;;
22308;SDS011;11322;50.858;-1.778;2024-01-15T10:00:33;3.8;;;0.95;;
22308;SDS011;11322;50.858;-1.778;2024-01-15T10:05:33;4.1;;;1.3;;
22308;SDS011;11322;50.858;-1.778;2024-01-15T10:10:33;4.5;;;1.2;;
22308;SDS011;11322;50.858;-1.778;2024-01-15T10:15:33;1.5;;;1.1;;
22308;SDS011;11322;50.858;-1.778;2024-01-15T10:20:33;6.55;;;3.0;;
22308;SDS011;11322;50.858;-1.778;2024-01-15T10:25:33;3.8;;;0.8;;
22308;SDS011;11322;50.858;-1.778;2024-01-15T10:30:33;1.45;;;1.0;;
22308;SDS011;11322;50.858;-1.778;2024-01-15T10:35:34;2.95;;;0.8;;
22308;SDS011;11322;50.858;-1.778;2024-01-15T10:40:33;3.3;;;0.9;;
22308;SDS011;11322;50.858;-1.778;2024-01-15T10:45:33;1.3;;;0.65;;
22308;SDS011;11322;50.858;-1.778;2024-01-15T10:50:33;4.25;;;0.7;;
22308;SDS011;11322;50.858;-1.778;2024-01-15T10:55:33;5.5;;;1.0;;
22308;SDS011;11322;50.858;-1.778;2024-01-15T11:00:33;3.15;;;2.15;;
22308;SDS011;11322;50.858;-1.778;2024-01-15T11:05:33;1.95;;;0.55;;
22308;SDS011;11322;50.858;-1.778;2024-01-15T11:10:41;7.0;;;1.1;;
22308;SDS011;11322;50.858;-1.778;2024-01-15T11:15:33;6.5;;;1.1;;
22308;SDS011;11322;50.858;-1.778;2024-01-15T11:15:58;6.5;;;1.1;;
22308;SDS011;11322;50.858;-1.778;2024-01-15T11:20:33;5.5;;;0.9;;
22308;SDS011;11322;50.858;-1.778;2024-01-15T11:25:34;6.3;;;2.3;;
22308;SDS011;11322;50.858;-1.778;2024-01-15T11:30:33;1.65;;;1.15;;
22308;SDS011;11322;50.858;-1.778;2024-01-15T11:35:48;6.35;;;1.15;;
22308;SDS011;11322;50.858;-1.778;2024-01-15T11:40:37;0.95;;;0.6;;
22308;SDS011;11322;50.858;-1.778;2024-01-15T11:45:33;2.95;;;1.35;;
22308;SDS011;11322;50.858;-1.778;2024-01-15T11:50:33;3.85;;;0.8;;
22308;SDS011;11322;50.858;-1.778;2024-01-15T11:55:34;1.2;;;0.9;;
22308;SDS011;11322;50.858;-1.778;2024-01-15T12:00:33;3.6;;;0.7;;
22308;SDS011;11322;50.858;-1.778;2024-01-15T12:05:33;2.65;;;1.1;;
22308;SDS011;11322;50.858;-1.778;2024-01-15T12:11:42;6.05;;;1.2;;
22308;SDS011;11322;50.858;-1.778;2024-01-15T12:15:33;1.8;;;0.8;;
22308;SDS011;11322;50.858;-1.778;2024-01-15T12:20:33;0.7;;;0.65;;
22308;SDS011;11322;50.858;-1.778;2024-01-15T12:25:33;2.7;;;1.1;;
22308;SDS011;11322;50.858;-1.778;2024-01-15T12:30:33;1.8;;;0.8;;
22308;SDS011;11322;50.858;-1.778;2024-01-15T12:35:33;3.75;;;1.5;;
22308;SDS011;11322;50.858;-1.778;2024-01-15T12:40:33;3.5;;;1.05;;
22308;SDS011;11322;50.858;-1.778;2024-01-15T12:45:33;2.4;;;0.6;;
22308;SDS011;11322;50.858;-1.778;2024-01-15T12:50:33;2.7;;;1.1;;
22308;SDS011;11322;50.858;-1.778;2024-01-15T12:55:33;2.3;;;0.6;;
22308;SDS011;11322;50.858;-1.778;2024-01-15T13:00:33;3.3;;;0.9;;
22308;SDS011;11322;50.858;-1.778;2024-01-15T13:05:33;4.4;;;0.85;;
22308;SDS011;11322;50.858;-1.778;2024-01-15T13:10:33;1.8;;;0.65;;
22308;SDS011;11322;50.858;-1.778;2024-01-15T13:15:33;4.25;;;1.1;;
22308;SDS011;11322;50.858;-1.778;2024-01-15T13:20:33;4.35;;;1.2;;
22308;SDS011;11322;50.858;-1.778;2024-01-15T13:25:33;1.05;;;0.7;;
22308;SDS011;11322;50.858;-1.778;2024-01-15T13:30:33;1.8;;;0.9;;
22308;SDS011;11322;50.858;-1.778;2024-01-15T13:35:33;0.65;;;0.5;;
22308;SDS011;11322;50.858;-1.778;2024-01-15T13:40:33;2.55;;;0.65;;
22308;SDS011;11322;50.858;-1.778;2024-01-15T13:45:33;0.65;;;0.6;;
22308;SDS011;11322;50.858;-1.778;2024-01-15T13:50:33;1.3;;;0.65;;
22308;SDS011;11322;50.858;-1.778;2024-01-15T13:55:33;0.85;;;0.5;;
22308;SDS011;11322;50.858;-1.778;2024-01-15T14:00:33;0.65;;;0.55;;
22308;SDS011;11322;50.858;-1.778;2024-01-15T14:05:33;0.5;;;0.5;;
22308;SDS011;11322;50.858;-1.778;2024-01-15T14:10:33;1.5;;;0.6;;
22308;SDS011;11322;50.858;-1.778;2024-01-15T14:15:33;1.1;;;0.5;;
22308;SDS011;11322;50.858;-1.778;2024-01-15T14:20:33;2.5;;;0.7;;
22308;SDS011;11322;50.858;-1.778;2024-01-15T14:25:33;3.4;;;0.85;;
22308;SDS011;11322;50.858;-1.778;2024-01-15T14:30:33;0.7;;;0.65;;
22308;SDS011;11322;50.858;-1.778;2024-01-15T14:35:33;2.45;;;0.7;;
22308;SDS011;11322;50.858;-1.778;2024-01-15T14:40:34;1.35;;;0.7;;
22308;SDS011;11322;50.858;-1.778;2024-01-15T14:45:33;2.25;;;0.95;;
22308;SDS011;11322;50.858;-1.778;2024-01-15T14:50:33;0.65;;;0.55;;
22308;SDS011;11322;50.858;-1.778;2024-01-15T14:55:33;1.0;;;0.8;;
22308;SDS011;11322;50.858;-1.778;2024-01-15T15:00:33;0.7;;;0.45;;
22308;SDS011;11322;50.858;-1.778;2024-01-15T15:05:33;1.55;;;0.5;;
22308;SDS011;11322;50.858;-1.778;2024-01-15T15:10:33;2.2;;;0.9;;
22308;SDS011;11322;50.858;-1.778;2024-01-15T15:15:33;1.7;;;0.65;;
22308;SDS011;11322;50.858;-1.778;2024-01-15T15:20:33;3.0;;;0.7;;
22308;SDS011;11322;50.858;-1.778;2024-01-15T15:25:33;1.55;;;0.7;;
22308;SDS011;11322;50.858;-1.778;2024-01-15T15:30:33;8.2;;;1.75;;
22308;SDS011;11322;50.858;-1.778;2024-01-15T15:35:33;3.7;;;1.2;;
22308;SDS011;11322;50.858;-1.778;2024-01-15T15:40:33;2.85;;;0.55;;
22308;SDS011;11322;50.858;-1.778;2024-01-15T15:45:33;1.8;;;0.4;;
22308;SDS011;11322;50.858;-1.778;2024-01-15T15:50:33;1.7;;;1.15;;
22308;SDS011;11322;50.858;-1.778;2024-01-15T15:55:33;7.55;;;2.15;;
22308;SDS011;11322;50.858;-1.778;2024-01-15T16:00:33;1.75;;;0.75;;
22308;SDS011;11322;50.858;-1.778;2024-01-15T16:05:33;1.8;;;0.65;;
22308;SDS011;11322;50.858;-1.778;2024-01-15T16:10:33;0.55;;;0.5;;
22308;SDS011;11322;50.858;-1.778;2024-01-15T16:15:33;3.4;;;1.3;;
22308;SDS011;11322;50.858;-1.778;2024-01-15T16:20:33;1.1;;;0.3;;
22308;SDS011;11322;50.858;-1.778;2024-01-15T16:25:33;0.65;;;0.65;;
22308;SDS011;11322;50.858;-1.778;2024-01-15T16:30:33;4.6;;;0.9;;
22308;SDS011;11322;50.858;-1.778;2024-01-15T16:35:33;9.7;;;2.9;;
22308;SDS011;11322;50.858;-1.778;2024-01-15T16:40:33;6.45;;;3.6;;
22308;SDS011;11322;50.858;-1.778;2024-01-15T16:45:33;4.7;;;1.6;;
22308;SDS011;11322;50.858;-1.778;2024-01-15T16:50:34;4.85;;;1.8;;
22308;SDS011;11322;50.858;-1.778;2024-01-15T16:55:33;12.55;;;4.05;;
22308;SDS011;11322;50.858;-1.778;2024-01-15T17:00:33;8.6;;;2.5;;
22308;SDS011;11322;50.858;-1.778;2024-01-15T17:05:33;7.25;;;3.4;;
22308;SDS011;11322;50.858;-1.778;2024-01-15T17:10:33;10.8;;;4.45;;
22308;SDS011;11322;50.858;-1.778;2024-01-15T17:15:33;13.0;;;4.1;;
22308;SDS011;11322;50.858;-1.778;2024-01-15T17:20:33;14.0;;;4.8;;
22308;SDS011;11322;50.858;-1.778;2024-01-15T17:25:33;13.55;;;4.75;;
22308;SDS011;11322;50.858;-1.778;2024-01-15T17:30:33;13.8;;;5.15;;
22308;SDS011;11322;50.858;-1.778;2024-01-15T17:35:33;9.8;;;5.55;;
22308;SDS011;11322;50.858;-1.778;2024-01-15T17:40:33;13.1;;;4.9;;
22308;SDS011;11322;50.858;-1.778;2024-01-15T17:45:33;18.65;;;7.05;;
22308;SDS011;11322;50.858;-1.778;2024-01-15T17:50:33;41.1;;;12.3;;
22308;SDS011;11322;50.858;-1.778;2024-01-15T17:55:33;68.15;;;19.85;;
22308;SDS011;11322;50.858;-1.778;2024-01-15T18:00:33;82.4;;;31.4;;
22308;SDS011;11322;50.858;-1.778;2024-01-15T18:05:33;46.9;;;19.5;;
22308;SDS011;11322;50.858;-1.778;2024-01-15T18:10:33;27.45;;;12.1;;
22308;SDS011;11322;50.858;-1.778;2024-01-15T18:15:33;26.65;;;9.75;;
22308;SDS011;11322;50.858;-1.778;2024-01-15T18:20:33;39.15;;;14.4;;
22308;SDS011;11322;50.858;-1.778;2024-01-15T18:25:33;37.15;;;17.2;;
22308;SDS011;11322;50.858;-1.778;2024-01-15T18:30:33;50.85;;;22.95;;
22308;SDS011;11322;50.858;-1.778;2024-01-15T18:35:33;32.2;;;12.95;;
22308;SDS011;11322;50.858;-1.778;2024-01-15T18:40:33;59.2;;;18.3;;
22308;SDS011;11322;50.858;-1.778;2024-01-15T18:45:33;38.85;;;15.95;;
22308;SDS011;11322;50.858;-1.778;2024-01-15T18:50:33;69.25;;;20.8;;
22308;SDS011;11322;50.858;-1.778;2024-01-15T18:55:33;47.45;;;16.75;;
22308;SDS011;11322;50.858;-1.778;2024-01-15T19:00:33;34.0;;;11.65;;
22308;SDS011;11322;50.858;-1.778;2024-01-15T19:05:33;55.95;;;20.3;;
22308;SDS011;11322;50.858;-1.778;2024-01-15T19:10:33;56.7;;;20.65;;
22308;SDS011;11322;50.858;-1.778;2024-01-15T19:15:33;29.9;;;13.05;;
22308;SDS011;11322;50.858;-1.778;2024-01-15T19:20:33;40.45;;;16.25;;
22308;SDS011;11322;50.858;-1.778;2024-01-15T19:25:33;64.75;;;22.25;;
22308;SDS011;11322;50.858;-1.778;2024-01-15T19:30:33;87.55;;;31.25;;
22308;SDS011;11322;50.858;-1.778;2024-01-15T19:35:33;69.65;;;25.9;;
22308;SDS011;11322;50.858;-1.778;2024-01-15T19:40:33;50.75;;;19.85;;
22308;SDS011;11322;50.858;-1.778;2024-01-15T19:45:33;52.05;;;21.7;;
22308;SDS011;11322;50.858;-1.778;2024-01-15T19:50:33;40.85;;;18.7;;
22308;SDS011;11322;50.858;-1.778;2024-01-15T19:55:33;33.85;;;14.95;;
22308;SDS011;11322;50.858;-1.778;2024-01-15T20:00:33;32.75;;;15.55;;
22308;SDS011;11322;50.858;-1.778;2024-01-15T20:05:33;29.15;;;12.3;;
22308;SDS011;11322;50.858;-1.778;2024-01-15T20:10:33;76.15;;;24.9;;
22308;SDS011;11322;50.858;-1.778;2024-01-15T20:15:33;69.4;;;24.15;;
22308;SDS011;11322;50.858;-1.778;2024-01-15T20:20:33;35.1;;;14.1;;
22308;SDS011;11322;50.858;-1.778;2024-01-15T20:25:33;26.25;;;10.0;;
22308;SDS011;11322;50.858;-1.778;2024-01-15T20:30:33;47.0;;;16.05;;
22308;SDS011;11322;50.858;-1.778;2024-01-15T20:35:33;31.5;;;12.7;;
22308;SDS011;11322;50.858;-1.778;2024-01-15T20:40:33;39.8;;;17.1;;
22308;SDS011;11322;50.858;-1.778;2024-01-15T20:45:33;23.35;;;9.65;;
22308;SDS011;11322;50.858;-1.778;2024-01-15T20:50:33;14.35;;;6.45;;
22308;SDS011;11322;50.858;-1.778;2024-01-15T20:55:33;20.4;;;8.65;;
22308;SDS011;11322;50.858;-1.778;2024-01-15T21:00:33;15.75;;;8.2;;
22308;SDS011;11322;50.858;-1.778;2024-01-15T21:05:33;19.75;;;7.3;;
22308;SDS011;11322;50.858;-1.778;2024-01-15T21:10:33;17.1;;;7.65;;
22308;SDS011;11322;50.858;-1.778;2024-01-15T21:15:33;16.0;;;6.6;;
22308;SDS011;11322;50.858;-1.778;2024-01-15T21:20:33;22.95;;;8.45;;
22308;SDS011;11322;50.858;-1.778;2024-01-15T21:25:33;33.4;;;9.9;;
22308;SDS011;11322;50.858;-1.778;2024-01-15T21:30:33;30.95;;;12.3;;
22308;SDS011;11322;50.858;-1.778;2024-01-15T21:35:33;29.3;;;11.8;;
22308;SDS011;11322;50.858;-1.778;2024-01-15T21:40:33;31.6;;;13.45;;
22308;SDS011;11322;50.858;-1.778;2024-01-15T21:45:33;51.9;;;16.9;;
22308;SDS011;11322;50.858;-1.778;2024-01-15T21:50:33;32.45;;;11.8;;
22308;SDS011;11322;50.858;-1.778;2024-01-15T21:55:33;52.8;;;18.75;;
22308;SDS011;11322;50.858;-1.778;2024-01-15T22:00:33;36.0;;;16.15;;
22308;SDS011;11322;50.858;-1.778;2024-01-15T22:05:33;45.9;;;18.9;;
22308;SDS011;11322;50.858;-1.778;2024-01-15T22:10:33;43.0;;;18.15;;
22308;SDS011;11322;50.858;-1.778;2024-01-15T22:15:33;36.7;;;15.35;;
22308;SDS011;11322;50.858;-1.778;2024-01-15T22:20:33;39.55;;;16.2;;
22308;SDS011;11322;50.858;-1.778;2024-01-15T22:25:33;36.1;;;12.85;;
22308;SDS011;11322;50.858;-1.778;2024-01-15T22:30:33;43.95;;;14.75;;
22308;SDS011;11322;50.858;-1.778;2024-01-15T22:35:33;32.85;;;12.0;;
22308;SDS011;11322;50.858;-1.778;2024-01-15T22:40:33;25.4;;;11.25;;
22308;SDS011;11322;50.858;-1.778;2024-01-15T22:45:33;38.85;;;14.75;;
22308;SDS011;11322;50.858;-1.778;2024-01-15T22:50:33;41.8;;;15.15;;
22308;SDS011;11322;50.858;-1.778;2024-01-15T22:55:33;32.95;;;13.05;;
22308;SDS011;11322;50.858;-1.778;2024-01-15T23:00:33;25.25;;;10.45;;
22308;SDS011;11322;50.858;-1.778;2024-01-15T23:05:33;22.9;;;9.2;;
22308;SDS011;11322;50.858;-1.778;2024-01-15T23:10:33;29.8;;;12.2;;
22308;SDS011;11322;50.858;-1.778;2024-01-15T23:15:33;29.35;;;11.75;;
22308;SDS011;11322;50.858;-1.778;2024-01-15T23:20:33;25.3;;;10.15;;
22308;SDS011;11322;50.858;-1.778;2024-01-15T23:25:33;38.05;;;13.15;;
22308;SDS011;11322;50.858;-1.778;2024-01-15T23:30:33;25.65;;;9.2;;
22308;SDS011;11322;50.858;-1.778;2024-01-15T23:35:33;19.3;;;8.85;;
22308;SDS011;11322;50.858;-1.778;2024-01-15T23:40:33;12.55;;;7.15;;
22308;SDS011;11322;50.858;-1.778;2024-01-15T23:45:33;17.55;;;6.6;;
22308;SDS011;11322;50.858;-1.778;2024-01-15T23:50:33;19.35;;;8.15;;
22308;SDS011;11322;50.858;-1.778;2024-01-15T23:55:33;19.4;;;7.05;;
